DTTZ/TOE METAR and TAF weather

Enter ICAO airport designator
Station Type Date Time Source
DTTZ METAR 2018/04/27 01:00 UTC NOAA

DTTZ 270100Z 09011KT CAVOK 21/11 Q1003 NOSIG


Station Type Date Time Source
DTTZ Decoded METAR 2018/04/27 01:00 UTC NOAA

Tozeur, Tunisia (DTTZ) 33-55N 008-06E 93M
Apr 26, 2018 - 09:00 PM EDT / 2018.04.27 0100 UTC
Wind: from the E (090 degrees) at 13 MPH (11 KT):0
Visibility: greater than 7 mile(s):0
Temperature: 69 F (21 C)
Dew Point: 51 F (11 C)
Relative Humidity: 52%
Pressure (altimeter): 29.62 in. Hg (1003 hPa)
ob: DTTZ 270100Z 09011KT CAVOK 21/11 Q1003 NOSIG
cycle: 1

Station Type Date Time Source
DTTZ TAF 2018/04/26 18:24 UTC NOAA

TAF DTTZ 261700Z 2618/2718 10010KT 6000 NSC PROB30
TEMPO 2707/2718 -TSRA SCT026CB


Example: see airport list